createdAt,value
2018-06-14T00:00:08.319Z,99.90
2018-06-14T00:02:39.492Z,99.90
2018-06-14T00:05:11.460Z,99.90
2018-06-14T00:10:12.267Z,99.90
2018-06-14T00:13:07.786Z,99.90
2018-06-14T00:16:03.073Z,99.90
2018-06-14T00:18:33.220Z,99.90
2018-06-14T00:21:03.480Z,99.90
2018-06-14T00:23:33.639Z,99.90
2018-06-14T00:26:03.770Z,99.90
2018-06-14T00:28:33.979Z,99.90
2018-06-14T00:31:33.626Z,99.90
2018-06-14T00:34:46.597Z,99.90
2018-06-14T00:37:16.831Z,99.90
2018-06-14T00:42:24.429Z,99.90
2018-06-14T00:44:54.668Z,99.90
2018-06-14T00:47:24.849Z,99.90
2018-06-14T00:49:54.941Z,99.90
2018-06-14T00:52:25.059Z,99.90
2018-06-14T00:54:55.348Z,99.90
2018-06-14T00:57:28.300Z,99.90
2018-06-14T01:00:02.521Z,99.90
2018-06-14T01:02:33.584Z,99.90
2018-06-14T01:05:03.910Z,99.90
2018-06-14T01:07:34.133Z,99.90
2018-06-14T01:10:04.365Z,99.90
2018-06-14T01:12:34.590Z,99.90
2018-06-14T01:15:04.900Z,99.90
2018-06-14T01:17:34.985Z,99.90
2018-06-14T01:20:05.464Z,99.90
2018-06-14T01:22:35.560Z,99.90
2018-06-14T01:25:06.045Z,99.90
2018-06-14T01:27:36.137Z,99.90
2018-06-14T01:30:06.893Z,99.90
2018-06-14T01:32:36.989Z,99.90
2018-06-14T01:35:07.233Z,99.90
2018-06-14T01:37:54.316Z,99.90
2018-06-14T01:40:24.441Z,99.90
2018-06-14T01:42:54.595Z,99.90
2018-06-14T01:45:24.708Z,99.90
2018-06-14T01:47:54.785Z,99.90
2018-06-14T01:50:24.904Z,99.90
2018-06-14T01:52:55.076Z,99.90
2018-06-14T01:55:28.929Z,99.90
2018-06-14T01:57:59.137Z,99.90
2018-06-14T02:00:29.453Z,99.90
2018-06-14T02:02:59.598Z,99.90
2018-06-14T02:05:30.201Z,99.90
2018-06-14T02:08:00.307Z,99.90
2018-06-14T02:10:30.457Z,99.90
2018-06-14T02:13:00.556Z,99.90
2018-06-14T02:18:01.007Z,99.90
2018-06-14T02:21:07.275Z,99.90
2018-06-14T02:26:41.556Z,99.90
2018-06-14T02:29:11.632Z,99.90
2018-06-14T02:31:41.746Z,99.90
2018-06-14T02:34:11.853Z,99.90
2018-06-14T02:36:42.094Z,99.90
2018-06-14T02:39:12.176Z,99.90
2018-06-14T02:41:42.297Z,99.90
2018-06-14T02:44:12.443Z,99.90
2018-06-14T02:46:42.613Z,99.90
2018-06-14T02:49:12.713Z,99.90
2018-06-14T02:51:42.792Z,99.90
2018-06-14T02:54:12.912Z,99.90
2018-06-14T02:56:43.006Z,99.90
2018-06-14T02:59:13.153Z,99.90
2018-06-14T03:01:43.363Z,99.90
2018-06-14T03:04:13.468Z,99.90
2018-06-14T03:06:43.596Z,99.90
2018-06-14T03:09:13.696Z,99.90
2018-06-14T03:11:43.825Z,99.90
2018-06-14T03:14:13.928Z,99.90
2018-06-14T03:17:32.314Z,99.90
2018-06-14T03:20:48.516Z,99.90
2018-06-14T03:23:18.624Z,99.90
2018-06-14T03:25:49.366Z,99.90
2018-06-14T03:28:44.613Z,99.90
2018-06-14T03:31:15.285Z,99.90
2018-06-14T03:33:45.432Z,99.90
2018-06-14T03:36:15.612Z,99.90
2018-06-14T03:38:45.680Z,99.90
2018-06-14T03:43:45.508Z,99.90
2018-06-14T03:46:15.609Z,99.90
2018-06-14T03:48:45.723Z,99.90
2018-06-14T03:51:48.962Z,99.90
2018-06-14T03:54:19.155Z,99.90
2018-06-14T03:56:49.300Z,99.90
2018-06-14T03:59:19.440Z,99.90
2018-06-14T04:01:49.580Z,99.90
2018-06-14T04:04:19.995Z,99.90
2018-06-14T04:07:22.079Z,99.90
2018-06-14T04:10:03.249Z,99.90
2018-06-14T04:12:34.656Z,99.90
2018-06-14T04:18:21.149Z,99.90
2018-06-14T04:21:19.493Z,99.90
2018-06-14T04:24:18.391Z,99.90
2018-06-14T04:30:03.369Z,99.90
2018-06-14T04:32:33.549Z,99.90
2018-06-14T04:35:03.728Z,99.90
2018-06-14T04:37:34.102Z,99.90
2018-06-14T04:40:04.263Z,99.90
2018-06-14T04:42:34.596Z,99.90
2018-06-14T04:45:04.745Z,99.90
2018-06-14T04:47:35.216Z,99.90
2018-06-14T04:50:05.574Z,99.90
2018-06-14T04:52:35.732Z,99.90
2018-06-14T04:55:06.633Z,99.90
2018-06-14T04:57:36.712Z,99.90
2018-06-14T05:00:09.048Z,99.90
2018-06-14T05:02:39.366Z,99.90
2018-06-14T05:05:09.700Z,99.90
2018-06-14T05:07:40.219Z,99.90
2018-06-14T05:10:10.678Z,99.90
2018-06-14T05:12:40.863Z,99.90
2018-06-14T05:15:10.957Z,99.90
2018-06-14T05:17:41.380Z,99.90
2018-06-14T05:20:11.559Z,99.90
2018-06-14T05:22:41.688Z,99.90
2018-06-14T05:25:11.912Z,99.90
2018-06-14T05:27:41.985Z,99.90
2018-06-14T05:30:12.208Z,99.90
2018-06-14T05:32:42.289Z,99.90
2018-06-14T05:37:42.104Z,99.90
2018-06-14T05:40:12.172Z,99.90
2018-06-14T05:42:42.254Z,99.90
2018-06-14T05:45:12.325Z,99.90
2018-06-14T05:47:42.401Z,99.90
2018-06-14T05:50:12.456Z,99.90
2018-06-14T05:52:42.557Z,99.90
2018-06-14T05:55:12.668Z,99.90
2018-06-14T05:57:42.774Z,99.50
2018-06-14T06:00:16.021Z,99.50
2018-06-14T06:02:48.832Z,99.90
2018-06-14T06:05:20.540Z,99.90
2018-06-14T06:07:50.960Z,99.90
2018-06-14T06:10:21.055Z,99.70
2018-06-14T06:12:51.120Z,99.40
2018-06-14T06:15:21.193Z,99.30
2018-06-14T06:17:51.317Z,99.30
2018-06-14T06:20:21.404Z,99.20
2018-06-14T06:22:51.468Z,99.30
2018-06-14T06:25:21.544Z,99.60
2018-06-14T06:27:51.612Z,99.90
2018-06-14T06:30:21.740Z,99.90
2018-06-14T06:32:51.816Z,99.90
2018-06-14T06:35:21.944Z,99.10
2018-06-14T06:37:52.449Z,99.80
2018-06-14T06:40:22.565Z,99.30
2018-06-14T06:42:52.631Z,99.30
2018-06-14T06:45:22.772Z,97.90
2018-06-14T06:47:52.841Z,97.40
2018-06-14T06:50:22.916Z,97.60
2018-06-14T06:52:53.090Z,97.80
2018-06-14T06:55:23.161Z,98.10
2018-06-14T06:57:53.236Z,98.50
2018-06-14T07:00:23.335Z,98.30
2018-06-14T07:02:53.408Z,98.50
2018-06-14T07:05:23.492Z,97.80
2018-06-14T07:07:53.567Z,97.80
2018-06-14T07:10:23.657Z,97.80
2018-06-14T07:12:53.745Z,94.30
2018-06-14T07:15:23.823Z,92.20
2018-06-14T07:20:23.634Z,91.50
2018-06-14T07:22:53.700Z,92.40
2018-06-14T07:25:23.766Z,91.70
2018-06-14T07:27:53.836Z,93.10
2018-06-14T07:30:23.891Z,90.30
2018-06-14T07:32:53.956Z,89.80
2018-06-14T07:35:24.024Z,89.50
2018-06-14T07:37:54.104Z,86.80
2018-06-14T07:40:24.169Z,83.80
2018-06-14T07:42:54.252Z,86.60
2018-06-14T07:45:24.345Z,84.60
2018-06-14T07:47:54.420Z,84.50
2018-06-14T07:50:24.497Z,83.30
2018-06-14T07:52:54.578Z,85.80
2018-06-14T07:55:24.664Z,81.80
2018-06-14T07:57:54.896Z,81.90
2018-06-14T08:00:24.960Z,89.60
2018-06-14T08:02:55.049Z,88.90
2018-06-14T08:05:25.188Z,85.40
2018-06-14T08:07:55.272Z,83.60
2018-06-14T08:10:25.439Z,83.00
2018-06-14T08:12:55.550Z,81.10
2018-06-14T08:15:25.604Z,83.00
2018-06-14T08:17:55.695Z,77.40
2018-06-14T08:20:25.752Z,71.80
2018-06-14T08:22:55.930Z,74.10
2018-06-14T08:25:26.004Z,77.40
2018-06-14T08:27:56.076Z,83.40
2018-06-14T08:30:26.158Z,79.40
2018-06-14T08:32:56.251Z,80.50
2018-06-14T08:35:26.300Z,76.50
2018-06-14T08:37:56.490Z,77.40
2018-06-14T08:40:26.583Z,68.90
2018-06-14T08:42:56.644Z,63.70
2018-06-14T08:45:26.720Z,62.70
2018-06-14T08:47:56.783Z,64.60
2018-06-14T08:50:26.893Z,66.00
2018-06-14T08:52:56.957Z,64.60
2018-06-14T08:55:27.016Z,65.40
2018-06-14T08:57:57.096Z,63.10
2018-06-14T09:00:27.196Z,61.10
2018-06-14T09:02:57.292Z,57.90
2018-06-14T09:05:27.368Z,58.60
2018-06-14T09:07:57.440Z,59.00
2018-06-14T09:12:57.209Z,59.70
2018-06-14T09:15:27.286Z,61.70
2018-06-14T09:17:57.361Z,56.90
2018-06-14T09:20:27.476Z,59.20
2018-06-14T09:22:57.564Z,56.60
2018-06-14T09:25:27.628Z,56.80
2018-06-14T09:27:57.708Z,53.20
2018-06-14T09:32:57.476Z,56.00
2018-06-14T09:35:27.579Z,51.80
2018-06-14T09:37:57.636Z,50.00
2018-06-14T09:40:27.932Z,48.70
2018-06-14T09:42:58.162Z,50.20
2018-06-14T09:45:28.268Z,47.60
2018-06-14T09:47:58.513Z,46.30
2018-06-14T09:50:28.608Z,47.80
2018-06-14T09:52:58.680Z,50.00
2018-06-14T09:55:28.776Z,49.20
2018-06-14T09:57:58.864Z,48.30
2018-06-14T10:00:29.058Z,48.30
2018-06-14T10:02:59.076Z,49.30
2018-06-14T10:05:29.172Z,52.50
2018-06-14T10:07:59.351Z,50.00
2018-06-14T10:10:29.440Z,50.10
2018-06-14T10:12:59.604Z,51.40
2018-06-14T10:15:29.729Z,50.50
2018-06-14T10:18:02.788Z,50.10
2018-06-14T10:20:35.835Z,52.60
2018-06-14T10:23:09.879Z,52.30
2018-06-14T10:28:14.357Z,54.00
2018-06-14T10:30:47.185Z,55.00
2018-06-14T10:33:20.009Z,54.10
2018-06-14T10:35:52.755Z,57.20
2018-06-14T10:38:25.167Z,56.20
2018-06-14T10:40:55.373Z,56.10
2018-06-14T10:45:55.140Z,56.00
2018-06-14T10:48:25.202Z,57.70
2018-06-14T10:50:55.395Z,58.60
2018-06-14T10:53:25.459Z,57.90
2018-06-14T10:55:55.528Z,55.00
2018-06-14T10:58:25.684Z,57.80
2018-06-14T11:00:55.843Z,56.10
2018-06-14T11:03:25.984Z,56.60
2018-06-14T11:05:56.084Z,57.90
2018-06-14T11:08:26.172Z,58.20
2018-06-14T11:10:56.271Z,61.60
2018-06-14T11:13:26.354Z,60.00
2018-06-14T11:15:56.548Z,58.00
2018-06-14T11:18:26.707Z,56.50
2018-06-14T11:20:56.780Z,58.60
2018-06-14T11:23:26.860Z,58.30
2018-06-14T11:25:56.940Z,56.60
2018-06-14T11:28:27.051Z,57.30
2018-06-14T11:30:57.147Z,57.30
2018-06-14T11:33:27.227Z,57.40
2018-06-14T11:35:58.020Z,56.20
2018-06-14T11:38:28.120Z,58.00
2018-06-14T11:40:58.220Z,57.90
2018-06-14T11:43:31.056Z,59.40
2018-06-14T11:46:01.319Z,60.40
2018-06-14T11:48:31.561Z,60.60
2018-06-14T11:51:01.762Z,57.00
2018-06-14T11:53:31.908Z,55.60
2018-06-14T11:56:01.971Z,56.40
2018-06-14T11:58:32.079Z,55.00
2018-06-14T12:01:02.392Z,55.30
2018-06-14T12:03:32.528Z,55.20
2018-06-14T12:06:02.681Z,56.70
2018-06-14T12:08:32.797Z,56.00
2018-06-14T12:11:02.946Z,56.00
2018-06-14T12:13:33.060Z,56.80
2018-06-14T12:16:03.235Z,58.20
2018-06-14T12:18:33.371Z,59.90
2018-06-14T12:21:03.471Z,60.00
2018-06-14T12:23:33.640Z,57.50
2018-06-14T12:26:03.752Z,56.80
2018-06-14T12:28:33.865Z,54.40
2018-06-14T12:31:03.952Z,54.60
2018-06-14T12:33:34.038Z,56.10
2018-06-14T12:36:04.195Z,53.10
2018-06-14T12:38:34.265Z,54.10
2018-06-14T12:41:04.408Z,52.10
2018-06-14T12:43:34.711Z,51.00
2018-06-14T12:46:04.947Z,51.30
2018-06-14T12:48:35.136Z,50.50
2018-06-14T12:51:05.286Z,50.80
2018-06-14T12:53:35.432Z,54.50
2018-06-14T12:56:05.995Z,52.10
2018-06-14T12:58:36.238Z,51.00
2018-06-14T13:01:06.462Z,48.20
2018-06-14T13:03:36.652Z,48.30
2018-06-14T13:06:06.724Z,48.20
2018-06-14T13:08:36.842Z,49.50
2018-06-14T13:11:07.015Z,54.50
2018-06-14T13:13:37.227Z,53.40
2018-06-14T13:16:07.302Z,50.80
2018-06-14T13:18:37.426Z,50.40
2018-06-14T13:21:07.602Z,52.00
2018-06-14T13:23:38.092Z,48.80
2018-06-14T13:26:08.255Z,50.70
2018-06-14T13:28:38.333Z,54.50
2018-06-14T13:31:08.813Z,51.70
2018-06-14T13:33:39.032Z,52.40
2018-06-14T13:36:09.128Z,54.70
2018-06-14T13:38:39.240Z,53.50
2018-06-14T13:41:09.325Z,53.90
2018-06-14T13:43:39.564Z,52.60
2018-06-14T13:46:09.662Z,53.10
2018-06-14T13:48:39.750Z,52.30
2018-06-14T13:51:09.954Z,50.90
2018-06-14T13:53:40.218Z,51.10
2018-06-14T13:56:10.298Z,53.00
2018-06-14T13:58:40.364Z,52.50
2018-06-14T14:01:10.637Z,53.10
2018-06-14T14:03:40.580Z,50.90
2018-06-14T14:06:10.655Z,51.70
2018-06-14T14:08:40.859Z,53.00
2018-06-14T14:11:10.887Z,52.10
2018-06-14T14:13:40.989Z,52.10
2018-06-14T14:16:11.055Z,51.50
2018-06-14T14:18:41.257Z,52.80
2018-06-14T14:23:40.995Z,51.60
2018-06-14T14:26:11.733Z,52.10
2018-06-14T14:28:41.833Z,53.80
2018-06-14T14:31:11.908Z,52.30
2018-06-14T14:33:42.084Z,52.60
2018-06-14T14:36:12.163Z,52.30
2018-06-14T14:38:42.232Z,54.30
2018-06-14T14:41:12.340Z,52.40
2018-06-14T14:43:42.594Z,50.80
2018-06-14T14:46:12.720Z,49.70
2018-06-14T14:48:42.788Z,50.80
2018-06-14T14:51:12.880Z,51.60
2018-06-14T14:53:43.563Z,52.40
2018-06-14T14:56:13.611Z,52.70
2018-06-14T14:58:43.679Z,52.90
2018-06-14T15:03:43.472Z,51.50
2018-06-14T15:06:13.617Z,53.40
2018-06-14T15:08:43.755Z,52.70
2018-06-14T15:11:13.821Z,54.10
2018-06-14T15:13:43.897Z,53.10
2018-06-14T15:16:14.052Z,55.30
2018-06-14T15:18:44.114Z,52.30
2018-06-14T15:21:14.191Z,51.00
2018-06-14T15:23:44.354Z,50.40
2018-06-14T15:26:14.496Z,51.80
2018-06-14T15:28:44.576Z,51.90
2018-06-14T15:31:14.642Z,53.90
2018-06-14T15:33:44.832Z,55.10
2018-06-14T15:36:14.943Z,53.20
2018-06-14T15:38:45.011Z,54.30
2018-06-14T15:41:15.116Z,53.40
2018-06-14T15:43:45.195Z,52.80
2018-06-14T15:46:15.292Z,53.90
2018-06-14T15:48:45.409Z,55.70
2018-06-14T15:51:15.439Z,55.00
2018-06-14T15:53:45.700Z,56.00
2018-06-14T15:56:34.616Z,53.60
2018-06-14T15:59:09.871Z,53.80
2018-06-14T16:01:39.940Z,54.90
2018-06-14T16:04:10.391Z,54.60
2018-06-14T16:06:40.504Z,54.70
2018-06-14T16:09:12.012Z,54.40
2018-06-14T16:11:42.280Z,53.60
2018-06-14T16:14:12.395Z,53.90
2018-06-14T16:16:42.604Z,53.90
2018-06-14T16:19:12.760Z,54.20
2018-06-14T16:21:42.869Z,54.00
2018-06-14T16:24:13.296Z,52.00
2018-06-14T16:26:43.366Z,50.40
2018-06-14T16:29:13.464Z,48.50
2018-06-14T16:31:43.536Z,49.90
2018-06-14T16:34:13.697Z,48.60
2018-06-14T16:36:43.788Z,47.80
2018-06-14T16:39:13.900Z,48.10
2018-06-14T16:41:44.012Z,49.00
2018-06-14T16:44:14.092Z,50.70
2018-06-14T16:46:44.184Z,47.80
2018-06-14T16:51:44.643Z,50.40
2018-06-14T16:56:44.672Z,49.20
2018-06-14T16:59:14.832Z,48.50
2018-06-14T17:01:45.023Z,48.50
2018-06-14T17:04:15.232Z,49.20
2018-06-14T17:06:45.312Z,49.10
2018-06-14T17:09:16.084Z,50.20
2018-06-14T17:11:46.524Z,50.70
2018-06-14T17:14:17.102Z,51.40
2018-06-14T17:16:47.555Z,52.40
2018-06-14T17:19:19.700Z,51.20
2018-06-14T17:21:50.195Z,52.20
2018-06-14T17:24:20.705Z,52.80
2018-06-14T17:26:51.091Z,52.70
2018-06-14T17:29:21.764Z,53.60
2018-06-14T17:31:52.193Z,53.00
2018-06-14T17:34:22.648Z,53.40
2018-06-14T17:36:53.144Z,54.00
2018-06-14T17:39:23.587Z,53.70
2018-06-14T17:41:54.280Z,54.70
2018-06-14T17:44:24.701Z,54.30
2018-06-14T17:46:56.469Z,54.80
2018-06-14T17:49:26.945Z,55.30
2018-06-14T17:51:57.374Z,55.10
2018-06-14T17:54:27.891Z,56.50
2018-06-14T17:56:58.255Z,56.80
2018-06-14T17:59:28.786Z,56.50
2018-06-14T18:01:59.370Z,57.60
2018-06-14T18:04:29.891Z,58.60
2018-06-14T18:07:00.184Z,58.50
2018-06-14T18:09:30.780Z,58.40
2018-06-14T18:12:01.215Z,58.30
2018-06-14T18:14:32.000Z,59.10
2018-06-14T18:17:02.457Z,58.90
2018-06-14T18:19:32.943Z,60.70
2018-06-14T18:22:03.302Z,62.60
2018-06-14T18:24:33.559Z,64.60
2018-06-14T18:27:03.945Z,65.70
2018-06-14T18:29:34.297Z,65.70
2018-06-14T18:32:04.708Z,63.90
2018-06-14T18:34:35.683Z,65.30
2018-06-14T18:37:06.325Z,69.00
2018-06-14T18:39:36.760Z,71.00
2018-06-14T18:42:07.571Z,73.20
2018-06-14T18:44:38.146Z,73.60
2018-06-14T18:47:08.458Z,74.60
2018-06-14T18:49:38.535Z,76.20
2018-06-14T18:52:09.111Z,77.50
2018-06-14T18:54:40.628Z,78.10
2018-06-14T18:57:10.800Z,78.10
2018-06-14T18:59:41.204Z,79.10
2018-06-14T19:02:11.822Z,79.00
2018-06-14T19:04:42.263Z,81.00
2018-06-14T19:07:12.686Z,80.00
2018-06-14T19:09:43.048Z,79.80
2018-06-14T19:12:13.115Z,80.30
2018-06-14T19:14:43.244Z,80.70
2018-06-14T19:17:13.428Z,81.50
2018-06-14T19:19:43.440Z,80.70
2018-06-14T19:22:13.504Z,81.20
2018-06-14T19:24:43.588Z,81.70
2018-06-14T19:27:14.009Z,83.30
2018-06-14T19:29:44.108Z,84.20
2018-06-14T19:32:14.185Z,84.70
2018-06-14T19:34:44.276Z,84.90
2018-06-14T19:37:14.361Z,85.30
2018-06-14T19:39:44.560Z,84.50
2018-06-14T19:42:14.772Z,85.10
2018-06-14T19:44:44.876Z,85.20
2018-06-14T19:47:15.197Z,85.60
2018-06-14T19:49:45.283Z,85.30
2018-06-14T19:52:15.454Z,84.30
2018-06-14T19:54:45.974Z,85.20
2018-06-14T19:57:16.250Z,85.60
2018-06-14T19:59:47.224Z,86.60
2018-06-14T20:02:17.414Z,87.00
2018-06-14T20:04:47.577Z,87.00
2018-06-14T20:07:17.695Z,86.30
2018-06-14T20:09:48.536Z,86.20
2018-06-14T20:12:18.708Z,87.20
2018-06-14T20:14:48.886Z,86.90
2018-06-14T20:17:19.014Z,87.20
2018-06-14T20:19:49.137Z,86.70
2018-06-14T20:22:19.335Z,87.80
2018-06-14T20:24:49.411Z,86.70
2018-06-14T20:27:19.751Z,86.80
2018-06-14T20:29:49.879Z,86.40
2018-06-14T20:32:20.093Z,86.80
2018-06-14T20:34:50.239Z,87.60
2018-06-14T20:37:20.343Z,88.30
2018-06-14T20:39:50.457Z,88.20
2018-06-14T20:42:20.728Z,88.70
2018-06-14T20:44:50.824Z,89.00
2018-06-14T20:47:21.279Z,89.10
2018-06-14T20:49:51.390Z,88.60
2018-06-14T20:52:21.548Z,88.90
2018-06-14T20:54:51.690Z,90.00
2018-06-14T20:57:21.782Z,90.10
2018-06-14T20:59:51.889Z,90.40
2018-06-14T21:02:21.988Z,89.70
2018-06-14T21:04:52.218Z,90.00
2018-06-14T21:07:22.268Z,89.00
2018-06-14T21:09:52.387Z,89.10
2018-06-14T21:12:22.464Z,89.30
2018-06-14T21:14:52.567Z,89.80
2018-06-14T21:17:22.736Z,90.10
2018-06-14T21:19:52.820Z,90.70
2018-06-14T21:22:22.876Z,90.60
2018-06-14T21:24:52.976Z,90.70
2018-06-14T21:27:23.051Z,90.90
2018-06-14T21:29:53.144Z,90.60
2018-06-14T21:32:23.231Z,90.70
2018-06-14T21:34:53.329Z,90.80
2018-06-14T21:37:23.412Z,90.90
2018-06-14T21:39:53.563Z,90.70
2018-06-14T21:42:23.631Z,90.90
2018-06-14T21:44:53.716Z,91.30
2018-06-14T21:47:26.796Z,91.40
2018-06-14T21:49:56.878Z,91.00
2018-06-14T21:52:27.955Z,90.70
2018-06-14T21:54:58.045Z,90.90
2018-06-14T21:57:28.224Z,91.00
2018-06-14T21:59:58.365Z,91.00
2018-06-14T22:02:28.532Z,91.60
2018-06-14T22:04:58.627Z,91.70
2018-06-14T22:07:28.704Z,92.00
2018-06-14T22:09:58.777Z,91.60
2018-06-14T22:12:28.872Z,91.40
2018-06-14T22:14:58.976Z,91.00
2018-06-14T22:17:29.044Z,91.10
2018-06-14T22:19:59.148Z,91.00
2018-06-14T22:22:29.224Z,91.00
2018-06-14T22:24:59.297Z,91.10
2018-06-14T22:27:29.452Z,90.90
2018-06-14T22:29:59.547Z,91.10
2018-06-14T22:32:29.649Z,90.90
2018-06-14T22:35:18.607Z,91.00
2018-06-14T22:37:48.708Z,91.00
2018-06-14T22:40:18.797Z,91.30
2018-06-14T22:42:48.892Z,91.30
2018-06-14T22:45:18.992Z,91.30
2018-06-14T22:47:49.120Z,91.50
2018-06-14T22:51:28.826Z,91.90
2018-06-14T22:53:58.929Z,92.10
2018-06-14T22:56:29.036Z,91.90
2018-06-14T22:58:59.136Z,92.10
2018-06-14T23:01:34.073Z,92.70
2018-06-14T23:04:04.594Z,92.10
2018-06-14T23:06:34.733Z,91.90
2018-06-14T23:10:27.431Z,91.80
2018-06-14T23:12:57.550Z,92.10
2018-06-14T23:15:27.660Z,92.40
2018-06-14T23:17:57.957Z,92.40
2018-06-14T23:20:29.080Z,92.60
2018-06-14T23:22:59.808Z,92.20
2018-06-14T23:25:30.729Z,91.90
2018-06-14T23:28:00.909Z,91.90
2018-06-14T23:30:31.075Z,91.90
2018-06-14T23:33:01.264Z,92.20
2018-06-14T23:35:32.596Z,91.80
2018-06-14T23:38:02.740Z,92.00
2018-06-14T23:40:32.860Z,92.20
2018-06-14T23:43:04.822Z,92.50
2018-06-14T23:45:34.901Z,92.40
2018-06-14T23:48:05.052Z,92.80
2018-06-14T23:50:35.166Z,92.30
2018-06-14T23:53:08.323Z,92.50
2018-06-14T23:55:38.473Z,92.50
2018-06-14T23:58:08.576Z,92.70
